Time;durP1;ratioP1;P1;durP2;ratioP2;P2;SDS_P1;SDS_P2;PMS_P1;PMS_P2;Temp;Humidity;BMP_temperature;BMP_pressure;BME280_temperature;BME280_humidity;BME280_pressure;Samples;Min_cycle;Max_cycle;Signal;HPM_P1;HPM_P2
2022/05/30 00:00:17;;;;;;;7.38;2.00;;;;;;;7.78;100.00;101456.25;5010618;28;20025;-65
2022/05/30 00:02:43;;;;;;;7.22;2.20;;;;;;;7.76;100.00;101450.13;5024616;28;20025;-65
2022/05/30 00:05:11;;;;;;;9.88;2.40;;;;;;;7.75;100.00;101460.72;5026190;28;20025;-65
2022/05/30 00:07:38;;;;;;;9.48;2.28;;;;;;;7.73;100.00;101457.28;5019335;28;20030;-65
2022/05/30 00:10:06;;;;;;;10.20;2.40;;;;;;;7.72;100.00;101453.75;4997278;28;20029;-65
2022/05/30 00:12:31;;;;;;;10.18;2.10;;;;;;;7.68;100.00;101452.94;5020758;28;20404;-65
2022/05/30 00:14:57;;;;;;;7.90;2.33;;;;;;;7.65;100.00;101449.53;5002821;28;20033;-66
2022/05/30 00:17:22;;;;;;;7.10;1.95;;;;;;;7.63;100.00;101443.44;5000303;28;20069;-66
2022/05/30 00:19:47;;;;;;;8.90;2.00;;;;;;;7.60;100.00;101439.09;4983219;28;20044;-64
2022/05/30 00:22:14;;;;;;;8.55;1.98;;;;;;;7.57;100.00;101439.19;4998010;28;20534;-64
2022/05/30 00:24:41;;;;;;;7.82;2.20;;;;;;;7.56;100.00;101432.16;5015365;28;20128;-65
2022/05/30 00:27:08;;;;;;;5.35;1.95;;;;;;;7.52;100.00;101430.50;5014288;28;20507;-66
2022/05/30 00:29:34;;;;;;;8.38;2.10;;;;;;;7.51;100.00;101436.69;5013611;28;20064;-64
2022/05/30 00:31:59;;;;;;;6.70;2.10;;;;;;;7.49;100.00;101427.94;5031438;28;20069;-66
2022/05/30 00:34:26;;;;;;;7.25;1.85;;;;;;;7.47;100.00;101433.25;5012535;28;20017;-65
2022/05/30 00:36:52;;;;;;;5.18;1.98;;;;;;;7.49;100.00;101427.94;5009313;28;20056;-64
2022/05/30 00:39:17;;;;;;;7.50;1.90;;;;;;;7.49;100.00;101423.53;4972322;28;20030;-65
2022/05/30 00:41:42;;;;;;;5.47;1.73;;;;;;;7.48;100.00;101427.06;4999584;28;20038;-65
2022/05/30 00:44:08;;;;;;;6.13;2.08;;;;;;;7.47;100.00;101435.03;5029210;28;20052;-64
2022/05/30 00:46:33;;;;;;;8.05;2.00;;;;;;;7.46;100.00;101431.50;5027414;28;20068;-65
2022/05/30 00:49:03;;;;;;;7.18;1.80;;;;;;;7.47;100.00;101427.13;5029194;28;20481;-64
2022/05/30 00:51:50;;;;;;;6.60;2.08;;;;;;;7.51;100.00;101427.00;5024015;28;20033;-64
2022/05/30 00:54:22;;;;;;;11.90;2.35;;;;;;;7.57;100.00;101428.63;5025176;28;20052;-65
2022/05/30 00:56:53;;;;;;;7.97;2.47;;;;;;;7.65;100.00;101428.47;5022919;28;20080;-64
2022/05/30 00:59:18;;;;;;;4.28;2.00;;;;;;;7.74;100.00;101428.22;5026702;28;20021;-64
2022/05/30 01:01:44;;;;;;;5.43;1.85;;;;;;;7.74;100.00;101428.22;5027282;28;20034;-65
2022/05/30 01:06:56;;;;;;;8.32;2.15;;;;;;;7.74;100.00;101422.97;5025997;28;20041;-64
2022/05/30 01:09:30;;;;;;;9.10;1.90;;;;;;;7.77;100.00;101422.03;5024410;28;20025;-65
2022/05/30 01:11:58;;;;;;;5.60;2.10;;;;;;;7.84;100.00;101423.63;5029123;28;20021;-65
2022/05/30 01:14:28;;;;;;;7.15;2.03;;;;;;;7.97;100.00;101427.69;5025779;28;20048;-65
2022/05/30 01:16:54;;;;;;;7.25;2.10;;;;;;;8.09;100.00;101418.59;5018922;28;20063;-67
2022/05/30 01:19:26;;;;;;;13.75;2.20;;;;;;;8.23;100.00;101430.56;4995592;28;20061;-64
2022/05/30 01:22:07;;;;;;;7.10;2.05;;;;;;;8.28;100.00;101413.72;5008500;28;20026;-65
2022/05/30 01:24:46;;;;;;;4.00;1.75;;;;;;;8.30;100.00;101409.28;5024221;28;20040;-65
2022/05/30 01:27:49;;;;;;;5.97;1.95;;;;;;;8.33;100.00;101417.09;5002414;28;20081;-65
2022/05/30 01:30:16;;;;;;;7.55;2.10;;;;;;;8.30;100.00;101419.81;5025004;28;20121;-65
2022/05/30 01:32:41;;;;;;;6.78;2.30;;;;;;;8.29;100.00;101404.88;5020187;28;20116;-65
2022/05/30 01:35:08;;;;;;;7.50;2.33;;;;;;;8.30;100.00;101406.63;5024179;28;20048;-65
2022/05/30 01:37:33;;;;;;;5.80;2.10;;;;;;;8.31;100.00;101404.84;5035597;28;20060;-65
2022/05/30 01:39:58;;;;;;;8.65;2.20;;;;;;;8.33;100.00;101398.63;5034288;28;20029;-65
2022/05/30 01:42:25;;;;;;;8.32;2.35;;;;;;;8.36;100.00;101402.94;5027423;28;20479;-65
2022/05/30 01:44:51;;;;;;;10.23;2.67;;;;;;;8.38;100.00;101393.22;5031286;28;20576;-65
2022/05/30 01:47:17;;;;;;;11.02;2.63;;;;;;;8.42;100.00;101396.66;5029076;28;20033;-65
2022/05/30 01:49:43;;;;;;;5.40;1.98;;;;;;;8.46;100.00;101396.53;5006382;28;20022;-65
2022/05/30 01:52:09;;;;;;;6.80;1.90;;;;;;;8.49;100.00;101398.22;5033856;28;20029;-65
2022/05/30 01:54:34;;;;;;;7.72;2.20;;;;;;;8.54;100.00;101396.34;5012080;28;20048;-65
2022/05/30 01:57:00;;;;;;;5.95;2.05;;;;;;;8.55;100.00;101395.44;5030678;28;20041;-65
2022/05/30 01:59:25;;;;;;;7.35;2.20;;;;;;;8.55;100.00;101397.22;5033072;28;20017;-65
2022/05/30 02:01:50;;;;;;;7.65;1.98;;;;;;;8.57;100.00;101395.38;4991657;28;20045;-65
2022/05/30 02:04:16;;;;;;;7.80;2.00;;;;;;;8.59;100.00;101386.50;5030774;28;20036;-65
2022/05/30 02:06:42;;;;;;;9.43;2.35;;;;;;;8.64;100.00;101394.31;5009413;28;20029;-64
2022/05/30 02:09:08;;;;;;;13.35;2.20;;;;;;;8.73;100.00;101378.22;5019736;28;20026;-65
2022/05/30 02:11:34;;;;;;;8.55;2.17;;;;;;;8.82;100.00;101382.38;5029741;28;20105;-65
2022/05/30 02:14:00;;;;;;;10.70;2.15;;;;;;;8.83;100.00;101386.75;5023314;28;20041;-65
2022/05/30 02:19:12;;;;;;;6.20;1.90;;;;;;;8.81;100.00;101375.34;5018475;28;20512;-65
2022/05/30 02:21:37;;;;;;;8.98;2.22;;;;;;;8.85;100.00;101390.22;5015348;28;20393;-64
2022/05/30 02:24:05;;;;;;;4.68;1.88;;;;;;;8.86;100.00;101386.66;5034504;28;20469;-65
2022/05/30 02:26:31;;;;;;;5.75;2.20;;;;;;;8.84;100.00;101384.06;4998480;28;20124;-65
2022/05/30 02:28:56;;;;;;;5.93;1.98;;;;;;;8.80;100.00;101385.06;5031479;28;20108;-65
2022/05/30 02:31:21;;;;;;;8.10;2.17;;;;;;;8.73;100.00;101377.34;5024149;28;20041;-64
2022/05/30 02:36:40;;;;;;;8.80;2.33;;;;;;;8.76;100.00;101382.53;5014834;28;20065;-64
2022/05/30 02:39:08;;;;;;;7.55;1.88;;;;;;;8.76;100.00;101382.53;5024157;28;20066;-65
2022/05/30 02:41:33;;;;;;;7.63;2.20;;;;;;;8.71;100.00;101382.69;5002617;28;20034;-65
2022/05/30 02:43:58;;;;;;;6.82;2.13;;;;;;;8.60;100.00;101380.34;5031357;28;20120;-65
2022/05/30 02:46:25;;;;;;;8.18;2.78;;;;;;;8.48;100.00;101383.34;5026229;28;20506;-65
2022/05/30 02:48:50;;;;;;;7.80;2.13;;;;;;;8.37;100.00;101376.50;5006059;28;20034;-65
2022/05/30 02:51:16;;;;;;;12.13;2.47;;;;;;;8.25;100.00;101374.22;5011561;28;20049;-65
2022/05/30 02:53:41;;;;;;;9.30;2.47;;;;;;;8.16;100.00;101371.84;5001990;28;20029;-65
2022/05/30 02:56:08;;;;;;;12.68;2.35;;;;;;;8.04;100.00;101383.53;5008922;28;20041;-66
2022/05/30 02:58:33;;;;;;;4.65;2.10;;;;;;;7.96;100.00;101378.47;5025345;28;20025;-64
2022/05/30 03:00:58;;;;;;;8.30;1.75;;;;;;;7.94;100.00;101382.94;5021230;28;20037;-66
2022/05/30 03:03:24;;;;;;;7.80;2.00;;;;;;;7.90;100.00;101389.16;5025579;28;20029;-66
2022/05/30 03:05:49;;;;;;;10.13;2.50;;;;;;;7.84;100.00;101390.19;5019186;28;20034;-66
2022/05/30 03:08:15;;;;;;;7.75;2.33;;;;;;;7.82;100.00;101375.31;4998050;28;20501;-64
2022/05/30 03:10:40;;;;;;;6.00;1.80;;;;;;;7.82;100.00;101380.59;5033095;28;20041;-64
2022/05/30 03:13:06;;;;;;;3.95;1.70;;;;;;;7.85;100.00;101378.75;5014122;28;20156;-64
2022/05/30 03:15:32;;;;;;;5.53;2.53;;;;;;;7.87;100.00;101376.91;5009292;28;20523;-64
2022/05/30 03:17:58;;;;;;;5.70;1.92;;;;;;;7.85;100.00;101378.75;5012683;28;20037;-65
2022/05/30 03:20:23;;;;;;;4.15;2.03;;;;;;;7.82;100.00;101376.16;5026424;28;20411;-65
2022/05/30 03:22:49;;;;;;;5.28;2.35;;;;;;;7.81;100.00;101370.94;5033780;28;20026;-65
2022/05/30 03:25:16;;;;;;;5.60;2.00;;;;;;;7.80;100.00;101374.47;5033443;28;20593;-65
2022/05/30 03:27:41;;;;;;;8.55;2.55;;;;;;;7.76;100.00;101371.03;5027764;28;20057;-65
2022/05/30 03:30:08;;;;;;;8.38;2.50;;;;;;;7.74;100.00;101371.97;5025393;28;20213;-65
2022/05/30 03:32:34;;;;;;;6.88;2.53;;;;;;;7.75;100.00;101371.09;5029180;28;20120;-65
2022/05/30 03:35:00;;;;;;;8.93;2.33;;;;;;;7.75;100.00;101379.00;5026642;28;20433;-66
2022/05/30 03:37:26;;;;;;;7.60;2.38;;;;;;;7.74;100.00;101375.50;5012319;28;20064;-66
2022/05/30 03:39:52;;;;;;;5.00;2.13;;;;;;;7.70;100.00;101379.97;4998761;28;20116;-64
2022/05/30 03:42:17;;;;;;;8.90;2.40;;;;;;;7.69;100.00;101377.38;4975266;28;20132;-64
2022/05/30 03:44:43;;;;;;;5.85;2.35;;;;;;;7.67;100.00;101379.19;5024995;28;20061;-65
2022/05/30 03:47:09;;;;;;;8.05;2.03;;;;;;;7.63;100.00;101378.38;5027462;28;20037;-65
2022/05/30 03:49:34;;;;;;;9.55;2.30;;;;;;;7.61;100.00;101380.22;4997807;28;20033;-65
2022/05/30 03:52:00;;;;;;;6.32;2.10;;;;;;;7.59;100.00;101378.50;5014753;28;20045;-65
2022/05/30 03:54:26;;;;;;;8.93;2.17;;;;;;;7.54;100.00;101387.41;5013313;28;20026;-65
2022/05/30 03:56:52;;;;;;;8.15;2.13;;;;;;;7.51;100.00;101376.91;5010532;28;20041;-65
2022/05/30 03:59:17;;;;;;;5.93;2.10;;;;;;;7.51;100.00;101382.19;5029509;28;20025;-65
2022/05/30 04:01:42;;;;;;;6.30;1.90;;;;;;;7.51;100.00;101379.56;5009658;28;20068;-65
2022/05/30 04:04:08;;;;;;;7.60;2.20;;;;;;;7.50;100.00;101388.34;5026730;28;20374;-65
2022/05/30 04:06:33;;;;;;;4.80;1.85;;;;;;;7.47;100.00;101379.69;5009050;28;20076;-66
2022/05/30 04:08:58;;;;;;;7.82;2.63;;;;;;;7.47;100.00;101382.31;5001480;28;20041;-66
2022/05/30 04:11:24;;;;;;;5.53;2.42;;;;;;;7.48;100.00;101370.84;5013836;28;20030;-63
2022/05/30 04:13:49;;;;;;;6.60;2.25;;;;;;;7.51;100.00;101374.28;5025662;28;21024;-65
2022/05/30 04:16:15;;;;;;;7.70;2.38;;;;;;;7.54;100.00;101371.59;4994805;28;20033;-65
2022/05/30 04:18:42;;;;;;;8.85;2.42;;;;;;;7.59;100.00;101371.47;5007977;28;20036;-66
2022/05/30 04:21:09;;;;;;;7.78;2.17;;;;;;;7.63;100.00;101375.75;5026496;28;20068;-66
2022/05/30 04:23:35;;;;;;;9.43;2.47;;;;;;;7.76;100.00;101368.41;4994985;28;20039;-66
2022/05/30 04:26:06;;;;;;;7.72;3.08;;;;;;;7.94;100.00;101366.22;5028577;28;20033;-66
2022/05/30 04:28:32;;;;;;;12.57;3.00;;;;;;;8.09;100.00;101360.56;5028116;28;20029;-65
2022/05/30 04:30:58;;;;;;;6.63;2.60;;;;;;;8.21;100.00;101356.75;5024820;28;20436;-66
2022/05/30 04:33:23;;;;;;;7.88;2.83;;;;;;;8.32;100.00;101359.09;5023286;28;20076;-64
2022/05/30 04:35:48;;;;;;;9.05;3.05;;;;;;;8.42;100.00;101367.63;5025467;28;20181;-64
2022/05/30 04:38:14;;;;;;;10.48;2.80;;;;;;;8.49;100.00;101364.81;4995646;28;20040;-64
2022/05/30 04:40:39;;;;;;;6.57;2.53;;;;;;;8.55;100.00;101365.53;5024792;28;20064;-65
2022/05/30 04:43:05;;;;;;;10.43;3.00;;;;;;;8.60;100.00;101364.50;5006305;28;20029;-65
2022/05/30 04:45:30;;;;;;;7.68;2.50;;;;;;;8.65;100.00;101367.88;5010395;28;20063;-66
2022/05/30 04:47:56;;;;;;;6.95;2.40;;;;;;;8.73;100.00;101367.66;5007775;28;20041;-65
2022/05/30 04:50:21;;;;;;;9.57;2.75;;;;;;;8.79;100.00;101371.91;4995991;28;20495;-66
2022/05/30 04:52:47;;;;;;;9.18;2.40;;;;;;;8.84;100.00;101367.34;4996472;28;20025;-66
2022/05/30 04:55:15;;;;;;;7.90;2.70;;;;;;;8.94;100.00;101365.28;5028657;28;20034;-65
2022/05/30 04:57:46;;;;;;;5.95;2.72;;;;;;;8.98;100.00;101364.31;5030529;28;20025;-65
2022/05/30 05:00:14;;;;;;;7.80;2.77;;;;;;;8.96;100.00;101368.75;5025192;28;20025;-65
2022/05/30 05:02:42;;;;;;;7.35;2.40;;;;;;;9.01;100.00;101364.22;5016250;28;20455;-65
2022/05/30 05:05:08;;;;;;;5.13;2.20;;;;;;;9.02;100.00;101374.72;5012085;28;20041;-65
2022/05/30 05:08:06;;;;;;;4.70;2.55;;;;;;;9.04;100.00;101372.06;5007292;28;20033;-66
2022/05/30 05:10:31;;;;;;;7.43;2.42;;;;;;;9.10;100.00;101369.19;5025159;28;20148;-65
2022/05/30 05:12:56;;;;;;;6.00;2.58;;;;;;;9.16;100.00;101376.94;5022501;28;20116;-65
2022/05/30 05:15:22;;;;;;;8.60;2.42;;;;;;;9.20;99.90;101374.22;5005024;28;20485;-65
2022/05/30 05:17:47;;;;;;;9.00;2.22;;;;;;;9.25;100.00;101378.44;5005023;28;20034;-64
2022/05/30 05:20:12;;;;;;;7.70;1.92;;;;;;;9.33;99.33;101380.84;5023476;28;20021;-64
2022/05/30 05:22:38;;;;;;;8.18;2.00;;;;;;;9.33;99.42;101376.47;5021710;28;20072;-65
2022/05/30 05:25:04;;;;;;;8.75;2.47;;;;;;;9.37;98.91;101379.84;5027080;28;20815;-65
2022/05/30 05:27:29;;;;;;;9.02;2.50;;;;;;;9.38;99.62;101381.59;5025295;28;20512;-65
2022/05/30 05:29:55;;;;;;;5.88;2.03;;;;;;;9.44;99.48;101383.19;5027329;28;20029;-66
2022/05/30 05:32:20;;;;;;;7.13;2.08;;;;;;;9.47;98.05;101380.44;5026338;28;20033;-65
2022/05/30 05:34:50;;;;;;;8.15;2.30;;;;;;;9.50;97.75;101383.84;5028512;28;20021;-64
2022/05/30 05:37:19;;;;;;;16.20;2.47;;;;;;;9.55;96.80;101375.75;5013735;28;20057;-65
2022/05/30 05:39:44;;;;;;;6.00;1.88;;;;;;;9.65;96.37;101389.56;5025763;28;20049;-65
2022/05/30 05:42:10;;;;;;;7.22;2.20;;;;;;;9.70;95.68;101382.34;5012970;28;20026;-65
2022/05/30 05:44:36;;;;;;;7.13;1.73;;;;;;;9.75;95.24;101380.41;5030398;28;20384;-66
2022/05/30 05:47:02;;;;;;;5.60;2.42;;;;;;;9.77;94.77;101381.22;5030664;28;20034;-66
2022/05/30 05:49:27;;;;;;;7.15;1.60;;;;;;;9.80;94.88;101381.13;5030624;28;20037;-66
2022/05/30 05:51:57;;;;;;;8.80;2.15;;;;;;;9.84;93.74;101379.25;5012206;28;20038;-65
2022/05/30 05:54:23;;;;;;;4.00;1.73;;;;;;;9.87;93.38;101376.47;5028587;28;20029;-65
2022/05/30 05:56:49;;;;;;;5.57;1.65;;;;;;;9.93;93.09;101384.22;5006088;28;20041;-66
2022/05/30 05:59:14;;;;;;;6.72;2.05;;;;;;;9.95;93.07;101385.03;5024100;28;20413;-65
2022/05/30 06:01:39;;;;;;;5.95;1.70;;;;;;;9.99;92.66;101389.31;5029882;28;20056;-67
2022/05/30 06:04:07;;;;;;;5.15;1.92;;;;;;;10.07;92.90;101391.69;5030458;28;20060;-65
2022/05/30 06:06:33;;;;;;;5.53;1.70;;;;;;;10.14;92.28;101389.69;5030584;28;20032;-66
2022/05/30 06:09:01;;;;;;;7.72;1.77;;;;;;;10.15;91.27;101394.97;5012803;28;20026;-66
2022/05/30 06:11:26;;;;;;;7.15;1.85;;;;;;;10.18;90.91;101401.94;5029581;28;20025;-66
2022/05/30 06:13:52;;;;;;;9.90;1.77;;;;;;;10.26;90.08;101389.28;5033333;28;20022;-65
2022/05/30 06:16:26;;;;;;;5.53;1.73;;;;;;;10.29;90.42;101391.84;5033856;28;20473;-65
2022/05/30 06:18:54;;;;;;;4.20;1.83;;;;;;;10.31;89.20;101390.00;5031596;28;20033;-65
2022/05/30 06:21:21;;;;;;;4.28;1.48;;;;;;;10.42;87.19;101394.06;5034233;28;20025;-65
2022/05/30 06:23:48;;;;;;;7.57;1.50;;;;;;;10.55;83.39;101394.50;5034351;28;20550;-66
2022/05/30 06:26:14;;;;;;;3.60;1.20;;;;;;;10.61;81.47;101392.53;5011855;28;20029;-65
2022/05/30 06:28:40;;;;;;;6.13;1.20;;;;;;;10.71;81.17;101390.38;5034206;28;20477;-66
2022/05/30 06:31:22;;;;;;;7.00;1.48;;;;;;;10.86;79.39;101390.72;5016572;28;20032;-66
2022/05/30 06:33:48;;;;;;;3.67;1.17;;;;;;;10.91;79.58;101394.09;5028721;28;20035;-66
2022/05/30 06:36:16;;;;;;;5.45;1.42;;;;;;;11.03;79.96;101396.25;5032881;28;20080;-68
2022/05/30 06:38:42;;;;;;;4.18;1.20;;;;;;;11.04;78.65;101394.50;5033733;28;20044;-65
2022/05/30 06:41:19;;;;;;;4.25;1.10;;;;;;;11.15;76.79;101398.47;5033667;28;20041;-65
2022/05/30 06:43:45;;;;;;;3.45;1.27;;;;;;;11.26;75.46;101383.91;5016365;28;20054;-65
2022/05/30 06:46:13;;;;;;;1.88;1.10;;;;;;;11.42;74.98;101389.47;5015845;28;20029;-66
2022/05/30 06:48:39;;;;;;;4.38;1.70;;;;;;;11.65;76.03;101385.91;5032830;28;20495;-65
2022/05/30 06:51:10;;;;;;;5.38;1.20;;;;;;;11.82;73.51;101389.69;5016077;28;20033;-66
2022/05/30 06:53:35;;;;;;;4.22;1.40;;;;;;;11.96;75.23;101390.84;5015888;28;20029;-66
2022/05/30 06:56:00;;;;;;;3.72;1.08;;;;;;;12.12;72.32;101388.41;5032584;28;20466;-65
2022/05/30 06:58:27;;;;;;;3.53;1.10;;;;;;;12.46;72.91;101386.09;5033221;28;20048;-65
2022/05/30 07:00:59;;;;;;;4.22;1.05;;;;;;;12.65;70.32;101391.44;5032622;28;20484;-66
2022/05/30 07:03:24;;;;;;;3.22;1.10;;;;;;;12.51;69.68;101401.84;5034379;28;20033;-66
2022/05/30 07:05:49;;;;;;;2.17;1.10;;;;;;;12.34;69.58;101400.78;5033597;28;20098;-66
2022/05/30 07:08:15;;;;;;;3.42;1.10;;;;;;;12.26;69.93;101394.91;5033577;28;20530;-66
2022/05/30 07:10:41;;;;;;;4.00;1.23;;;;;;;12.17;70.91;101393.50;5033287;28;20033;-64
2022/05/30 07:13:07;;;;;;;3.55;1.27;;;;;;;11.98;70.98;101397.88;5033912;28;20035;-65
2022/05/30 07:15:35;;;;;;;3.05;1.30;;;;;;;11.90;71.77;101403.47;5032348;28;20029;-66
2022/05/30 07:18:07;;;;;;;5.60;1.50;;;;;;;11.88;75.46;101411.50;5032506;28;20017;-65
2022/05/30 07:20:32;;;;;;;5.72;1.45;;;;;;;11.91;78.21;101403.41;4996085;28;20116;-66
2022/05/30 07:22:58;;;;;;;5.07;1.40;;;;;;;11.89;79.63;101410.59;5018786;28;20104;-66
2022/05/30 07:25:23;;;;;;;4.25;1.45;;;;;;;11.86;79.95;101405.38;5031447;28;20030;-66
2022/05/30 07:27:48;;;;;;;4.88;1.30;;;;;;;11.84;79.79;101412.56;5034398;28;20083;-66
2022/05/30 07:30:14;;;;;;;6.88;1.60;;;;;;;11.91;81.35;101411.38;5029178;28;20045;-65
2022/05/30 07:32:40;;;;;;;4.65;1.63;;;;;;;11.85;80.03;101414.28;5030896;28;20033;-65
2022/05/30 07:35:06;;;;;;;4.72;1.33;;;;;;;11.94;80.19;101402.41;5014688;28;20384;-65
2022/05/30 07:37:32;;;;;;;2.10;1.17;;;;;;;12.21;79.68;101402.22;5015461;28;20048;-64
2022/05/30 07:39:57;;;;;;;8.80;1.30;;;;;;;12.51;80.27;101401.84;5031664;28;20034;-63
2022/05/30 07:42:23;;;;;;;3.05;1.15;;;;;;;12.82;78.69;101406.63;5032705;28;20029;-64
2022/05/30 07:44:48;;;;;;;4.45;1.38;;;;;;;12.97;78.08;101406.84;5014917;28;20124;-61
2022/05/30 07:47:16;;;;;;;5.15;1.35;;;;;;;13.10;77.69;101410.69;5014735;28;20049;-64
2022/05/30 07:49:41;;;;;;;5.60;1.42;;;;;;;13.22;76.73;101410.13;5014769;28;20113;-62
2022/05/30 07:52:07;;;;;;;3.22;1.20;;;;;;;13.40;76.20;101418.19;5032985;28;20029;-65
2022/05/30 07:54:34;;;;;;;5.15;1.20;;;;;;;13.56;74.70;101413.84;5032099;28;20029;-65
2022/05/30 07:56:59;;;;;;;3.33;1.20;;;;;;;13.59;73.45;101405.75;5032622;28;20562;-64
2022/05/30 07:59:25;;;;;;;3.78;1.35;;;;;;;13.17;75.80;101409.47;5013956;28;20045;-65
2022/05/30 08:01:50;;;;;;;2.80;1.15;;;;;;;12.80;73.82;101416.47;5007349;28;20473;-65
2022/05/30 08:04:16;;;;;;;4.03;1.55;;;;;;;12.52;76.08;101411.50;4985527;28;20528;-65
2022/05/30 08:06:42;;;;;;;4.45;1.13;;;;;;;12.31;76.04;101416.81;5005703;28;20033;-65
2022/05/30 08:09:07;;;;;;;3.33;1.13;;;;;;;11.93;76.66;101417.50;5007999;28;20026;-65
2022/05/30 08:11:32;;;;;;;2.75;1.17;;;;;;;11.74;77.93;101421.81;5009245;28;20032;-66
2022/05/30 08:13:58;;;;;;;5.93;2.22;;;;;;;11.47;83.06;101425.50;5023180;28;20036;-64
2022/05/30 08:16:26;;;;;;;3.05;1.95;;;;;;;11.26;85.12;101421.88;5025663;28;20389;-65
2022/05/30 08:18:51;;;;;;;3.60;1.45;;;;;;;11.25;88.19;101414.88;5008706;28;20021;-65
2022/05/30 08:21:17;;;;;;;3.83;1.70;;;;;;;11.34;88.85;101424.25;5024488;28;20438;-68
2022/05/30 08:23:43;;;;;;;2.67;1.40;;;;;;;11.41;88.87;101423.09;5011172;28;20456;-66
2022/05/30 08:26:09;;;;;;;1.80;1.20;;;;;;;11.47;90.73;101425.50;5029006;28;20460;-67
2022/05/30 08:28:35;;;;;;;4.28;1.60;;;;;;;11.58;90.82;101433.03;5014303;28;20112;-68
2022/05/30 08:31:01;;;;;;;4.28;1.63;;;;;;;11.79;92.26;101430.44;5013515;28;20060;-67
2022/05/30 08:33:27;;;;;;;3.53;2.10;;;;;;;11.98;90.71;101435.03;5026304;28;20028;-68
2022/05/30 08:36:10;;;;;;;4.40;1.80;;;;;;;11.74;88.78;101432.41;5027188;28;20521;-67
2022/05/30 08:38:37;;;;;;;3.28;1.45;;;;;;;11.73;90.35;101434.22;5027704;28;20072;-68
2022/05/30 08:43:51;;;;;;;4.55;1.20;;;;;;;11.73;90.65;101438.69;5031815;28;20095;-68
2022/05/30 08:46:22;;;;;;;6.45;1.83;;;;;;;11.86;91.71;101439.88;5030726;28;20029;-68
2022/05/30 08:49:13;;;;;;;4.10;2.30;;;;;;;11.86;90.30;101439.88;5031430;28;20044;-69
2022/05/30 08:51:47;;;;;;;5.50;2.13;;;;;;;11.85;92.65;101438.16;5027539;28;20507;-68
2022/05/30 08:54:45;;;;;;;3.45;1.50;;;;;;;11.90;91.67;101433.53;5013683;28;20064;-65
2022/05/30 08:57:39;;;;;;;2.35;1.40;;;;;;;11.90;91.71;101436.19;4996979;28;20040;-67
2022/05/30 09:00:14;;;;;;;3.78;1.60;;;;;;;11.96;93.56;101446.59;4980033;28;20502;-68
2022/05/30 09:02:54;;;;;;;6.55;2.40;;;;;;;12.25;91.79;101433.91;5034550;28;20056;-67
2022/05/30 09:05:25;;;;;;;3.97;1.63;;;;;;;12.40;92.79;101442.13;5029773;28;20535;-66
2022/05/30 09:07:55;;;;;;;3.58;1.75;;;;;;;12.70;92.61;101445.25;5023081;28;20036;-67
2022/05/30 09:10:43;;;;;;;3.35;1.55;;;;;;;12.69;90.29;101435.56;5036183;28;20119;-66
2022/05/30 09:13:25;;;;;;;4.65;1.42;;;;;;;12.76;88.88;101442.34;5024662;28;20015;-67
2022/05/30 09:16:01;;;;;;;3.97;1.90;;;;;;;12.86;89.14;101437.44;5038927;28;20128;-66
2022/05/30 09:18:45;;;;;;;4.63;1.60;;;;;;;13.11;85.72;101439.00;5029762;28;20021;-67
2022/05/30 09:21:11;;;;;;;3.92;1.88;;;;;;;13.16;87.60;101449.41;5029442;28;20037;-67
2022/05/30 09:23:37;;;;;;;6.82;1.60;;;;;;;13.28;85.16;101443.53;5013384;28;20033;-66
2022/05/30 09:26:07;;;;;;;4.15;1.50;;;;;;;13.41;86.62;101450.06;5033360;28;20102;-67
2022/05/30 09:28:47;;;;;;;6.10;1.80;;;;;;;13.62;86.73;101443.78;4995679;28;20068;-67
2022/05/30 09:31:21;;;;;;;3.95;1.60;;;;;;;13.94;81.11;101444.88;5010867;28;20030;-67
2022/05/30 09:33:58;;;;;;;3.13;1.40;;;;;;;13.92;76.26;101444.94;5023892;28;20075;-66
2022/05/30 09:36:28;;;;;;;3.63;1.90;;;;;;;14.19;77.83;101449.81;5019967;28;20488;-67
2022/05/30 09:39:03;;;;;;;2.97;1.23;;;;;;;14.75;76.33;101442.53;5049111;28;20503;-65
2022/05/30 09:41:38;;;;;;;3.88;1.10;;;;;;;15.18;75.54;101442.06;5026793;28;20033;-66
2022/05/30 09:44:24;;;;;;;2.78;1.42;;;;;;;15.46;69.50;101442.31;5030606;28;20037;-66
2022/05/30 09:47:01;;;;;;;1.88;1.00;;;;;;;15.14;69.63;101443.19;5030632;28;20021;-65
2022/05/30 09:49:40;;;;;;;3.80;1.40;;;;;;;14.67;70.83;101449.25;5018177;28;20499;-66
2022/05/30 09:52:21;;;;;;;3.30;1.00;;;;;;;14.53;71.82;101433.94;5037510;28;20033;-65
2022/05/30 09:54:46;;;;;;;5.00;1.50;;;;;;;14.54;74.12;101443.63;5007933;28;20478;-66
2022/05/30 09:57:25;;;;;;;2.92;1.40;;;;;;;14.57;74.66;101438.16;5019704;28;20085;-65
2022/05/30 09:59:54;;;;;;;4.03;1.33;;;;;;;14.62;72.99;101437.94;5039550;28;20021;-66
2022/05/30 10:02:28;;;;;;;4.22;1.23;;;;;;;14.68;73.89;101446.50;5023086;28;20036;-65
2022/05/30 10:05:02;;;;;;;2.70;1.38;;;;;;;14.51;73.53;101444.66;5031995;28;20065;-66
2022/05/30 10:07:28;;;;;;;3.33;1.30;;;;;;;14.21;74.98;101444.44;5033902;28;20029;-66
2022/05/30 10:10:18;;;;;;;3.00;1.40;;;;;;;14.05;76.89;101447.00;5015986;28;20025;-65
2022/05/30 10:12:53;;;;;;;4.60;1.83;;;;;;;13.79;74.77;101440.31;5015538;28;20083;-64
2022/05/30 10:15:33;;;;;;;2.58;1.25;;;;;;;13.49;76.34;101441.72;5011560;28;20032;-65
2022/05/30 10:18:15;;;;;;;5.38;1.63;;;;;;;13.41;76.08;101446.53;5033149;28;20025;-65
2022/05/30 10:20:49;;;;;;;;;;;;;;;13.42;75.28;101448.25;5031327;28;20048;-66
2022/05/30 10:28:14;;;;;;;;;;;;;;;13.21;79.35;101450.94;5030029;28;20035;-66
2022/05/30 10:29:46;;;;;;;2.92;1.60;;;;;;;13.33;78.91;101459.28;5031424;28;19913;-66
2022/05/30 10:32:40;;;;;;;9.60;1.88;;;;;;;13.37;79.64;101464.41;5025910;28;20037;-67
2022/05/30 10:35:05;;;;;;;3.22;1.50;;;;;;;13.14;80.87;101459.28;5032372;28;20151;-68
2022/05/30 10:37:44;;;;;;;4.10;1.63;;;;;;;12.88;83.59;101461.31;5033230;28;20140;-68
2022/05/30 10:40:41;;;;;;;6.57;1.60;;;;;;;12.86;87.82;101463.19;5025982;28;20469;-68
2022/05/30 10:43:31;;;;;;;5.40;1.73;;;;;;;12.73;82.20;101469.03;5048645;28;20012;-68
2022/05/30 10:46:04;;;;;;;5.50;1.63;;;;;;;12.95;87.18;101471.63;5016304;28;20108;-67
2022/05/30 10:48:39;;;;;;;2.15;1.50;;;;;;;13.33;86.27;101472.59;5033560;28;20041;-68
2022/05/30 10:51:14;;;;;;;4.72;1.50;;;;;;;13.48;85.47;101471.91;5034068;28;20025;-68
2022/05/30 10:54:00;;;;;;;3.95;1.35;;;;;;;13.84;85.42;101468.41;5034190;28;20381;-67
2022/05/30 10:56:34;;;;;;;5.40;1.63;;;;;;;13.96;84.81;101476.75;5032117;28;20034;-67
2022/05/30 10:59:24;;;;;;;3.63;1.25;;;;;;;14.11;79.53;101473.31;5017644;28;20382;-68
2022/05/30 11:02:03;;;;;;;4.03;1.40;;;;;;;14.08;77.26;101466.34;5012543;28;20076;-67
2022/05/30 11:04:45;;;;;;;3.72;1.30;;;;;;;14.52;78.62;101473.03;5031469;28;20378;-67
2022/05/30 11:07:41;;;;;;;2.72;1.17;;;;;;;15.56;76.88;101476.44;5016009;28;20036;-66
2022/05/30 11:10:33;;;;;;;4.75;1.30;;;;;;;17.01;66.53;101468.97;5015674;28;20404;-66
2022/05/30 11:13:10;;;;;;;2.88;1.40;;;;;;;16.84;64.86;101459.25;5004248;28;20514;-67
2022/05/30 11:15:51;;;;;;;4.53;1.58;;;;;;;16.82;66.30;101469.22;5015917;28;20033;-66
2022/05/30 11:18:42;;;;;;;4.35;1.50;;;;;;;17.00;63.56;101470.78;5032897;28;20543;-66
2022/05/30 11:21:20;;;;;;;5.28;1.20;;;;;;;16.81;66.22;101464.81;5019934;28;20034;-66
2022/05/30 11:23:46;;;;;;;5.35;1.45;;;;;;;16.33;65.01;101471.22;5034596;28;20025;-65
2022/05/30 11:26:30;;;;;;;4.05;1.30;;;;;;;15.86;69.56;101477.50;5030052;28;20041;-65
2022/05/30 11:28:58;;;;;;;9.45;2.33;;;;;;;15.61;68.47;101468.16;5033459;28;20516;-66
2022/05/30 11:31:31;;;;;;;2.83;1.38;;;;;;;15.68;66.87;101469.53;5033273;28;20041;-65
2022/05/30 11:34:02;;;;;;;2.47;1.23;;;;;;;15.85;74.00;101465.09;5014928;28;20523;-65
2022/05/30 11:37:05;;;;;;;5.15;1.38;;;;;;;16.05;64.62;101470.16;5028361;28;20046;-65
2022/05/30 11:39:45;;;;;;;6.72;1.30;;;;;;;16.03;70.49;101468.50;5030813;28;20164;-65
2022/05/30 11:42:23;;;;;;;4.93;1.40;;;;;;;15.65;62.26;101466.19;5031943;28;20044;-65
2022/05/30 11:44:51;;;;;;;4.47;1.60;;;;;;;15.97;71.34;101463.53;5014631;28;20107;-65
2022/05/30 11:47:40;;;;;;;1.90;1.05;;;;;;;15.98;59.16;101462.56;5013389;28;20584;-65
2022/05/30 11:50:08;;;;;;;2.65;1.30;;;;;;;15.88;61.53;101459.56;5030915;28;20029;-65
2022/05/30 11:52:44;;;;;;;5.35;1.50;;;;;;;16.23;60.48;101459.34;5014676;28;20029;-64